Delhi, LA (71232)

6:50 PM CDT on May 24, 2015 (GMT -0500)
Rayville Airport | | Change Station
CLOSE
Current Station
Personal Weather Station
Location: Rayville, LA
Elevation: 105 ft
Nearby Weather Stations
Active Advisory: Tornado Watch Active Notice: Local Storm Report

Elev 105 ft 32.48 °N, 91.77 °W | Updated 8 minutes ago

Thunderstorm
Thunderstorm
76.7 °F
Feels Like 78 °F
N
4.0
Wind Variable Wind from ESE
Gusts 8.0 mph

Today
High -- | Low -- °F
--% Chance of Precip.
Yesterday
High -- | Low -- °F
Precip. -- in
6:02 AM 8:03 PM
Waxing Crescent, 43% visible
Pressure 29.98 in
Visibility 10.0 miles
Clouds Scattered Clouds 10000 ft
Heat Index 78 °F
Dew Point 72 °F
Humidity 86%
Rainfall 0.17 in
Snow Depth Not available.
UV 2 out of 12
Pollen 4.50 out of 12
Air Quality Not available.
Flu Activity Sporadic
METAR KTVR 242253Z AUTO 17007KT 10SM SCT100 25/21 A2996 RMK AO2 LTG DSNT SW AND NW RAB07E34 SLP151 P0002 T02500211

More Conditions Fewer Conditions

Pressure 29.98 in
Visibility 10.0 miles
Clouds Scattered Clouds 10000 ft
Heat Index 78 °F
Dew Point 72 °F
Humidity 86%
Rainfall 0.17 in
Snow Depth Not available.
UV 2 out of 12
Pollen 4.50 out of 12
Air Quality Not available.
Flu Activity Sporadic
METAR KTVR 242253Z AUTO 17007KT 10SM SCT100 25/21 A2996 RMK AO2 LTG DSNT SW AND NW RAB07E34 SLP151 P0002 T02500211

More Conditions Fewer Conditions

10-Day Weather Forecast

Almanac

Astronomy

May. 24, 2015 Rise Set
Actual Time
Civil Twilight
Nautical Twilight
Astronomical Twilight
Moon
Length of Visible Light
Length of Day
Tomorrow will be .
, % of the Moon is Illuminated

Today's Extremes

State Highs State Lows

Community

WunderPhotos

Upload Photos

1,823,895 photos uploaded!

WunderBlogs® & News

Nearby

Air Quality

  Air Quality AQ Index Pollutant
Not available.

Snow Depth

Station Depth Elevation

Earthquake Activity

City Distance Mag. Time & Date
Minimum magnitude displayed is 2.5.

Coastal Water Temperatures

Place Temperature

Stations

Nearby Weather Stations

Station Location Temp. Windchill Dew Point Humidity Wind Precip. Elev Updated Type
                   
Tornado Watch
Statement as of 6:43 PM CDT on May 24, 2015

Tornado Watch 204 remains in effect until 800 PM CDT for the
following locations

La
. Louisiana parishes included are

Ascension Assumption Catahoula
Concordia East Baton Rouge East Carroll
East Feliciana Franklin Iberia
Iberville Jefferson Lafourche
Livingston Madison Morehouse
Orleans Plaquemines Pointe Coupee
Richland St. Bernard St. Charles
St. Helena St. James St. John The Baptist
St. Landry St. Martin St. Mary
St. Tammany Tangipahoa Tensas
Terrebonne Washington West Baton Rouge
West Carroll West Feliciana